Cayuga, Illinois
Current Conditions -  °F | °C
As of 11:35 AM on Friday 24 Oct 2014 (Local Time) from KPNT Reporting Station
Clear Clear  
Wind Chill: 63°   Ceiling: Unl
Heat Index: 63°   Visibility: 10mi
Dew Point: 53°   Wind: 3mph
Humidity: 71%   Direction: 240°WSW
Pressure: 30.08"   Gusts: NA
Location:  40.8602°N, 88.6284°W
Report Text: KPNT 241635Z AUTO 24003KT 10SM CLR 17/12 A3008 RMK AO2 T01710119
Loading
Personal Weather Stations






























Interactive Weather Map
Tropical Storm Tracking
New forecast layout! Learn more

10-Day Weather Forecast

Advertisements
Track Severe Weather on mobile